South Bend Regional Airport
KSBN : now visible

Airfield :











YOU CAN JOIN US ON...

 
LOGIN :

Register | Disclaimer

   EN    FR    IT 

 









Legend :    VFR   Marginal VFR   IFR   Intensive IFR   Very Intensive IFR
Visi :
Ceiling :
>= 8 km
>= 3000ft
5 to 8 km
1000 to 3000 ft
1500m to 5 km
500 to 1000 ft
800 to 1500m
200 to 500 ft
< 800m
< 200 ft
Symbols :   Thunderstorms  Fog  Heavy snow  Heavy precipitations  Wind > 20 kt







- Airport Elevation : 799 ft
- IATA code : SBN


KSBN - South Bend Regional

CURRENT METAR :
  • 181854Z 16013KT 10SM -RA SCT045 SCT090 BKN120 23/22 A2989 RMK AO2 RAB1756 PRESFR SLP115 P0007 T02280217

EXPIRED METARs :
  • 181801Z 02005KT 10SM -RA SCT010 BKN110 22/21 A2999 RMK AO2 RAB1756 P0000 T02220211
  • 181743Z 33010KT 10SM -RA SCT010 BKN020 OVC110 22/21 A3002 RMK AO2 P0006 T02220211
  • 181658Z 08004KT 7SM -RA FEW022 BKN090 OVC110 22/22 A2999 RMK AO2 LTG DSNT E AND SE P0000 T02220217
  • 181654Z 08005KT 6SM VCTS -RA BR FEW022 BKN090 OVC110 22/22 A2999 RMK AO2 LTG DSNT E AND SE TSB11E26B29E51 SLP150 P0014 T02220217
  • 181645Z VRB03KT 3SM TSRA BR FEW009 BKN048 OVC095 22/21 A3000 RMK AO2 LTG DSNT NE-SE TSB11E26B29 P0011 T02220211

TAF KSBN
Valid from the 18 at 19:00 until the 19 at 18:00 UTC


181906Z 1819/1918 16015KT P6SM SCT050 BKN150
FM190300 22010KT P6SM FEW150
FM191500 23010G19KT P6SM FEW250
KZAU FIR / North America



MET'MAP, your aeronautical weather chart ! - Copyright ORBIFLY December 2007 - Disclaimer

ORBIFLY MET'MAP TEAM :

Programming & Development : Alexandra Zaïnal
Concept & Development : Baudouin d'Aumeries
Co-Development & Prog : Marc-Olivier Méhu
Technical & hardware support : Manuel Goepfert

Contact : metmap@orbifly.com




SOURCES & CREDITS :

   NOAA       Earth
Advisory